sensor_id;sensor_type;location;lat;lon;timestamp;P1;durP1;ratioP1;P2;durP2;ratioP2
70727;SDS011;58314;47.722;17.652;2022-08-19T00:00:46;8.38;;;2.80;;
70727;SDS011;58314;47.722;17.652;2022-08-19T00:03:47;9.30;;;2.85;;
70727;SDS011;58314;47.722;17.652;2022-08-19T00:06:48;9.82;;;3.25;;
70727;SDS011;58314;47.722;17.652;2022-08-19T00:09:49;9.15;;;3.42;;
70727;SDS011;58314;47.722;17.652;2022-08-19T00:12:50;9.02;;;3.10;;
70727;SDS011;58314;47.722;17.652;2022-08-19T00:15:51;11.35;;;3.40;;
70727;SDS011;58314;47.722;17.652;2022-08-19T00:18:52;8.55;;;3.35;;
70727;SDS011;58314;47.722;17.652;2022-08-19T00:21:55;10.07;;;3.22;;
70727;SDS011;58314;47.722;17.652;2022-08-19T00:24:56;8.95;;;3.33;;
70727;SDS011;58314;47.722;17.652;2022-08-19T00:27:57;11.90;;;3.33;;
70727;SDS011;58314;47.722;17.652;2022-08-19T00:30:59;7.50;;;3.50;;
70727;SDS011;58314;47.722;17.652;2022-08-19T00:34:00;9.88;;;3.35;;
70727;SDS011;58314;47.722;17.652;2022-08-19T00:37:00;9.77;;;3.75;;
70727;SDS011;58314;47.722;17.652;2022-08-19T00:40:02;11.65;;;3.70;;
70727;SDS011;58314;47.722;17.652;2022-08-19T00:43:08;9.65;;;3.33;;
70727;SDS011;58314;47.722;17.652;2022-08-19T00:49:15;10.95;;;4.10;;
70727;SDS011;58314;47.722;17.652;2022-08-19T00:52:38;8.50;;;3.90;;
70727;SDS011;58314;47.722;17.652;2022-08-19T00:55:45;12.15;;;4.63;;
70727;SDS011;58314;47.722;17.652;2022-08-19T00:58:48;12.30;;;4.18;;
70727;SDS011;58314;47.722;17.652;2022-08-19T01:01:48;10.93;;;4.10;;
70727;SDS011;58314;47.722;17.652;2022-08-19T01:04:49;11.25;;;5.05;;
70727;SDS011;58314;47.722;17.652;2022-08-19T01:07:50;10.85;;;4.75;;
70727;SDS011;58314;47.722;17.652;2022-08-19T01:10:52;12.43;;;5.00;;
70727;SDS011;58314;47.722;17.652;2022-08-19T01:13:55;8.95;;;4.45;;
70727;SDS011;58314;47.722;17.652;2022-08-19T01:16:56;10.00;;;4.70;;
70727;SDS011;58314;47.722;17.652;2022-08-19T01:20:00;9.80;;;4.97;;
70727;SDS011;58314;47.722;17.652;2022-08-19T01:23:01;9.00;;;4.07;;
70727;SDS011;58314;47.722;17.652;2022-08-19T01:26:02;9.07;;;4.22;;
70727;SDS011;58314;47.722;17.652;2022-08-19T01:29:03;8.70;;;4.53;;
70727;SDS011;58314;47.722;17.652;2022-08-19T01:32:03;10.73;;;4.47;;
70727;SDS011;58314;47.722;17.652;2022-08-19T01:35:05;10.77;;;5.13;;
70727;SDS011;58314;47.722;17.652;2022-08-19T01:38:08;9.52;;;5.03;;
70727;SDS011;58314;47.722;17.652;2022-08-19T01:41:11;10.77;;;4.85;;
70727;SDS011;58314;47.722;17.652;2022-08-19T01:44:14;11.15;;;5.00;;
70727;SDS011;58314;47.722;17.652;2022-08-19T01:47:16;13.38;;;5.40;;
70727;SDS011;58314;47.722;17.652;2022-08-19T01:50:16;13.50;;;4.88;;
70727;SDS011;58314;47.722;17.652;2022-08-19T01:53:18;14.48;;;5.60;;
70727;SDS011;58314;47.722;17.652;2022-08-19T01:56:19;10.82;;;4.93;;
70727;SDS011;58314;47.722;17.652;2022-08-19T01:59:20;10.20;;;4.95;;
70727;SDS011;58314;47.722;17.652;2022-08-19T02:02:23;12.18;;;5.03;;
70727;SDS011;58314;47.722;17.652;2022-08-19T02:05:24;12.98;;;5.45;;
70727;SDS011;58314;47.722;17.652;2022-08-19T02:08:25;10.52;;;4.68;;
70727;SDS011;58314;47.722;17.652;2022-08-19T02:11:28;13.35;;;5.43;;
70727;SDS011;58314;47.722;17.652;2022-08-19T02:14:33;13.05;;;5.40;;
70727;SDS011;58314;47.722;17.652;2022-08-19T02:17:35;15.65;;;6.10;;
70727;SDS011;58314;47.722;17.652;2022-08-19T02:20:36;10.27;;;6.28;;
70727;SDS011;58314;47.722;17.652;2022-08-19T02:23:38;15.32;;;5.97;;
70727;SDS011;58314;47.722;17.652;2022-08-19T02:26:39;11.15;;;4.90;;
70727;SDS011;58314;47.722;17.652;2022-08-19T02:29:40;10.18;;;4.65;;
70727;SDS011;58314;47.722;17.652;2022-08-19T02:32:41;9.23;;;4.68;;
70727;SDS011;58314;47.722;17.652;2022-08-19T02:35:43;10.90;;;4.95;;
70727;SDS011;58314;47.722;17.652;2022-08-19T02:38:44;10.55;;;5.00;;
70727;SDS011;58314;47.722;17.652;2022-08-19T02:41:45;11.20;;;4.80;;
70727;SDS011;58314;47.722;17.652;2022-08-19T02:44:46;9.57;;;5.15;;
70727;SDS011;58314;47.722;17.652;2022-08-19T02:47:46;7.85;;;4.45;;
70727;SDS011;58314;47.722;17.652;2022-08-19T02:50:48;9.70;;;4.82;;
70727;SDS011;58314;47.722;17.652;2022-08-19T02:53:55;8.55;;;4.97;;
70727;SDS011;58314;47.722;17.652;2022-08-19T02:56:56;12.63;;;5.32;;
70727;SDS011;58314;47.722;17.652;2022-08-19T02:59:57;10.27;;;4.57;;
70727;SDS011;58314;47.722;17.652;2022-08-19T03:02:59;9.27;;;4.57;;
70727;SDS011;58314;47.722;17.652;2022-08-19T03:06:15;7.40;;;4.35;;
70727;SDS011;58314;47.722;17.652;2022-08-19T03:09:16;11.35;;;4.65;;
70727;SDS011;58314;47.722;17.652;2022-08-19T03:12:19;9.88;;;4.95;;
70727;SDS011;58314;47.722;17.652;2022-08-19T03:15:20;10.73;;;4.82;;
70727;SDS011;58314;47.722;17.652;2022-08-19T03:18:21;7.00;;;4.75;;
70727;SDS011;58314;47.722;17.652;2022-08-19T03:21:22;8.63;;;4.70;;
70727;SDS011;58314;47.722;17.652;2022-08-19T03:24:24;8.85;;;4.78;;
70727;SDS011;58314;47.722;17.652;2022-08-19T03:27:25;10.32;;;5.32;;
70727;SDS011;58314;47.722;17.652;2022-08-19T03:30:26;7.70;;;4.55;;
70727;SDS011;58314;47.722;17.652;2022-08-19T03:33:27;11.75;;;4.90;;
70727;SDS011;58314;47.722;17.652;2022-08-19T03:36:29;10.73;;;5.38;;
70727;SDS011;58314;47.722;17.652;2022-08-19T03:39:30;11.68;;;5.32;;
70727;SDS011;58314;47.722;17.652;2022-08-19T03:42:30;9.13;;;5.18;;
70727;SDS011;58314;47.722;17.652;2022-08-19T03:45:31;10.85;;;5.30;;
70727;SDS011;58314;47.722;17.652;2022-08-19T03:48:32;7.43;;;5.18;;
70727;SDS011;58314;47.722;17.652;2022-08-19T03:51:35;13.32;;;6.00;;
70727;SDS011;58314;47.722;17.652;2022-08-19T03:54:38;11.18;;;6.45;;
70727;SDS011;58314;47.722;17.652;2022-08-19T03:57:39;13.10;;;6.63;;
70727;SDS011;58314;47.722;17.652;2022-08-19T04:00:42;10.57;;;6.00;;
70727;SDS011;58314;47.722;17.652;2022-08-19T04:03:43;12.40;;;6.22;;
70727;SDS011;58314;47.722;17.652;2022-08-19T04:06:46;11.73;;;6.50;;
70727;SDS011;58314;47.722;17.652;2022-08-19T04:09:47;10.30;;;6.40;;
70727;SDS011;58314;47.722;17.652;2022-08-19T04:12:49;12.73;;;6.80;;
70727;SDS011;58314;47.722;17.652;2022-08-19T04:15:50;10.20;;;6.20;;
70727;SDS011;58314;47.722;17.652;2022-08-19T04:18:51;9.70;;;6.13;;
70727;SDS011;58314;47.722;17.652;2022-08-19T04:21:52;13.45;;;6.63;;
70727;SDS011;58314;47.722;17.652;2022-08-19T04:24:54;8.05;;;6.20;;
70727;SDS011;58314;47.722;17.652;2022-08-19T04:27:55;12.82;;;6.30;;
70727;SDS011;58314;47.722;17.652;2022-08-19T04:30:55;10.57;;;6.30;;
70727;SDS011;58314;47.722;17.652;2022-08-19T04:33:57;10.57;;;6.57;;
70727;SDS011;58314;47.722;17.652;2022-08-19T04:36:59;10.27;;;6.53;;
70727;SDS011;58314;47.722;17.652;2022-08-19T04:40:04;10.30;;;6.32;;
70727;SDS011;58314;47.722;17.652;2022-08-19T04:43:25;8.90;;;6.47;;
70727;SDS011;58314;47.722;17.652;2022-08-19T04:46:26;9.02;;;5.75;;
70727;SDS011;58314;47.722;17.652;2022-08-19T04:49:26;10.18;;;6.30;;
70727;SDS011;58314;47.722;17.652;2022-08-19T04:52:28;9.13;;;5.82;;
70727;SDS011;58314;47.722;17.652;2022-08-19T04:55:31;8.38;;;5.72;;
70727;SDS011;58314;47.722;17.652;2022-08-19T04:58:31;10.50;;;6.03;;
70727;SDS011;58314;47.722;17.652;2022-08-19T05:01:32;8.45;;;5.80;;
70727;SDS011;58314;47.722;17.652;2022-08-19T05:04:33;9.57;;;6.22;;
70727;SDS011;58314;47.722;17.652;2022-08-19T05:07:35;13.38;;;6.50;;
70727;SDS011;58314;47.722;17.652;2022-08-19T05:10:37;8.48;;;6.03;;
70727;SDS011;58314;47.722;17.652;2022-08-19T05:13:40;10.15;;;6.43;;
70727;SDS011;58314;47.722;17.652;2022-08-19T05:16:42;7.25;;;6.25;;
70727;SDS011;58314;47.722;17.652;2022-08-19T05:19:43;8.68;;;6.40;;
70727;SDS011;58314;47.722;17.652;2022-08-19T05:23:12;8.50;;;6.20;;
70727;SDS011;58314;47.722;17.652;2022-08-19T05:26:15;8.63;;;6.22;;
70727;SDS011;58314;47.722;17.652;2022-08-19T05:29:18;9.82;;;6.40;;
70727;SDS011;58314;47.722;17.652;2022-08-19T05:32:21;9.02;;;6.95;;
70727;SDS011;58314;47.722;17.652;2022-08-19T05:35:23;11.85;;;6.70;;
70727;SDS011;58314;47.722;17.652;2022-08-19T05:38:25;10.15;;;7.45;;
70727;SDS011;58314;47.722;17.652;2022-08-19T05:41:27;11.88;;;7.55;;
70727;SDS011;58314;47.722;17.652;2022-08-19T05:44:30;10.98;;;7.63;;
70727;SDS011;58314;47.722;17.652;2022-08-19T05:47:33;10.05;;;7.60;;
70727;SDS011;58314;47.722;17.652;2022-08-19T05:50:35;11.70;;;7.60;;
70727;SDS011;58314;47.722;17.652;2022-08-19T05:53:37;8.50;;;7.30;;
70727;SDS011;58314;47.722;17.652;2022-08-19T05:56:39;10.23;;;7.63;;
70727;SDS011;58314;47.722;17.652;2022-08-19T05:59:40;9.55;;;7.63;;
70727;SDS011;58314;47.722;17.652;2022-08-19T06:02:42;11.82;;;8.18;;
70727;SDS011;58314;47.722;17.652;2022-08-19T06:05:42;10.98;;;7.93;;
70727;SDS011;58314;47.722;17.652;2022-08-19T06:08:43;12.20;;;8.68;;
70727;SDS011;58314;47.722;17.652;2022-08-19T06:11:52;12.63;;;8.60;;
70727;SDS011;58314;47.722;17.652;2022-08-19T06:14:54;10.38;;;9.25;;
70727;SDS011;58314;47.722;17.652;2022-08-19T06:17:55;11.00;;;8.32;;
70727;SDS011;58314;47.722;17.652;2022-08-19T06:20:56;12.20;;;8.60;;
70727;SDS011;58314;47.722;17.652;2022-08-19T06:23:57;10.48;;;9.23;;
70727;SDS011;58314;47.722;17.652;2022-08-19T06:27:02;13.77;;;8.38;;
70727;SDS011;58314;47.722;17.652;2022-08-19T06:30:06;9.13;;;7.72;;
70727;SDS011;58314;47.722;17.652;2022-08-19T06:33:07;12.23;;;8.18;;
70727;SDS011;58314;47.722;17.652;2022-08-19T06:36:08;9.65;;;7.70;;
70727;SDS011;58314;47.722;17.652;2022-08-19T06:39:21;9.27;;;7.65;;
70727;SDS011;58314;47.722;17.652;2022-08-19T06:45:26;11.25;;;7.82;;
70727;SDS011;58314;47.722;17.652;2022-08-19T06:48:26;9.73;;;7.65;;
70727;SDS011;58314;47.722;17.652;2022-08-19T06:51:27;12.00;;;7.40;;
70727;SDS011;58314;47.722;17.652;2022-08-19T06:54:28;10.35;;;7.43;;
70727;SDS011;58314;47.722;17.652;2022-08-19T06:57:32;8.10;;;7.00;;
70727;SDS011;58314;47.722;17.652;2022-08-19T07:00:34;8.68;;;7.15;;
70727;SDS011;58314;47.722;17.652;2022-08-19T07:03:35;10.32;;;7.15;;
70727;SDS011;58314;47.722;17.652;2022-08-19T07:06:37;11.15;;;7.10;;
70727;SDS011;58314;47.722;17.652;2022-08-19T07:09:39;9.02;;;7.32;;
70727;SDS011;58314;47.722;17.652;2022-08-19T07:12:42;8.20;;;7.05;;
70727;SDS011;58314;47.722;17.652;2022-08-19T07:15:42;7.90;;;6.72;;
70727;SDS011;58314;47.722;17.652;2022-08-19T07:18:43;8.20;;;6.35;;
70727;SDS011;58314;47.722;17.652;2022-08-19T07:21:45;7.88;;;6.55;;
70727;SDS011;58314;47.722;17.652;2022-08-19T07:24:47;12.57;;;6.93;;
70727;SDS011;58314;47.722;17.652;2022-08-19T07:27:51;8.70;;;6.35;;
70727;SDS011;58314;47.722;17.652;2022-08-19T07:30:52;10.38;;;6.10;;
70727;SDS011;58314;47.722;17.652;2022-08-19T07:33:53;11.13;;;6.20;;
70727;SDS011;58314;47.722;17.652;2022-08-19T07:36:58;10.75;;;6.22;;
70727;SDS011;58314;47.722;17.652;2022-08-19T07:40:00;11.50;;;6.55;;
70727;SDS011;58314;47.722;17.652;2022-08-19T07:43:01;10.43;;;6.82;;
70727;SDS011;58314;47.722;17.652;2022-08-19T07:46:02;7.32;;;6.20;;
70727;SDS011;58314;47.722;17.652;2022-08-19T07:49:03;9.73;;;6.28;;
70727;SDS011;58314;47.722;17.652;2022-08-19T07:52:07;14.00;;;6.38;;
70727;SDS011;58314;47.722;17.652;2022-08-19T07:55:09;7.45;;;5.88;;
70727;SDS011;58314;47.722;17.652;2022-08-19T07:58:11;15.90;;;6.97;;
70727;SDS011;58314;47.722;17.652;2022-08-19T08:01:14;9.30;;;6.30;;
70727;SDS011;58314;47.722;17.652;2022-08-19T08:04:17;9.18;;;6.05;;
70727;SDS011;58314;47.722;17.652;2022-08-19T08:07:37;7.60;;;5.85;;
70727;SDS011;58314;47.722;17.652;2022-08-19T08:10:56;8.25;;;6.70;;
70727;SDS011;58314;47.722;17.652;2022-08-19T08:13:56;14.55;;;6.90;;
70727;SDS011;58314;47.722;17.652;2022-08-19T08:16:58;12.07;;;6.40;;
70727;SDS011;58314;47.722;17.652;2022-08-19T08:19:59;12.43;;;6.22;;
70727;SDS011;58314;47.722;17.652;2022-08-19T08:23:00;8.38;;;6.38;;
70727;SDS011;58314;47.722;17.652;2022-08-19T08:26:19;9.90;;;5.60;;
70727;SDS011;58314;47.722;17.652;2022-08-19T08:29:20;8.13;;;5.15;;
70727;SDS011;58314;47.722;17.652;2022-08-19T08:32:23;8.75;;;5.35;;
70727;SDS011;58314;47.722;17.652;2022-08-19T08:35:24;10.40;;;5.72;;
70727;SDS011;58314;47.722;17.652;2022-08-19T08:38:25;9.02;;;5.50;;
70727;SDS011;58314;47.722;17.652;2022-08-19T08:44:32;14.82;;;5.70;;
70727;SDS011;58314;47.722;17.652;2022-08-19T08:48:01;10.13;;;5.93;;
70727;SDS011;58314;47.722;17.652;2022-08-19T08:51:09;11.02;;;6.03;;
70727;SDS011;58314;47.722;17.652;2022-08-19T08:54:14;9.13;;;5.78;;
70727;SDS011;58314;47.722;17.652;2022-08-19T08:57:35;7.75;;;5.30;;
70727;SDS011;58314;47.722;17.652;2022-08-19T09:00:41;7.95;;;5.30;;
70727;SDS011;58314;47.722;17.652;2022-08-19T09:03:45;9.68;;;6.05;;
70727;SDS011;58314;47.722;17.652;2022-08-19T09:09:57;8.02;;;5.10;;
70727;SDS011;58314;47.722;17.652;2022-08-19T09:13:14;7.50;;;5.30;;
70727;SDS011;58314;47.722;17.652;2022-08-19T09:16:19;8.18;;;5.07;;
70727;SDS011;58314;47.722;17.652;2022-08-19T09:19:22;9.23;;;5.38;;
70727;SDS011;58314;47.722;17.652;2022-08-19T09:22:22;8.57;;;5.38;;
70727;SDS011;58314;47.722;17.652;2022-08-19T09:25:23;7.40;;;5.05;;
70727;SDS011;58314;47.722;17.652;2022-08-19T09:28:24;10.75;;;5.50;;
70727;SDS011;58314;47.722;17.652;2022-08-19T09:31:26;9.52;;;5.03;;
70727;SDS011;58314;47.722;17.652;2022-08-19T09:34:32;9.13;;;5.07;;
70727;SDS011;58314;47.722;17.652;2022-08-19T09:37:33;8.02;;;4.88;;
70727;SDS011;58314;47.722;17.652;2022-08-19T09:40:33;8.80;;;4.60;;
70727;SDS011;58314;47.722;17.652;2022-08-19T09:43:35;11.55;;;4.90;;
70727;SDS011;58314;47.722;17.652;2022-08-19T09:46:38;7.00;;;5.13;;
70727;SDS011;58314;47.722;17.652;2022-08-19T09:49:39;10.25;;;5.30;;
70727;SDS011;58314;47.722;17.652;2022-08-19T09:52:40;6.68;;;4.53;;
70727;SDS011;58314;47.722;17.652;2022-08-19T09:55:42;11.02;;;5.00;;
70727;SDS011;58314;47.722;17.652;2022-08-19T09:58:44;6.63;;;4.60;;
70727;SDS011;58314;47.722;17.652;2022-08-19T10:01:45;16.00;;;6.40;;
70727;SDS011;58314;47.722;17.652;2022-08-19T10:04:45;11.25;;;5.80;;
70727;SDS011;58314;47.722;17.652;2022-08-19T10:08:05;12.52;;;5.70;;
70727;SDS011;58314;47.722;17.652;2022-08-19T10:11:05;14.00;;;6.47;;
70727;SDS011;58314;47.722;17.652;2022-08-19T10:14:06;11.85;;;6.00;;
70727;SDS011;58314;47.722;17.652;2022-08-19T10:17:07;16.42;;;6.30;;
70727;SDS011;58314;47.722;17.652;2022-08-19T10:20:08;9.77;;;5.88;;
70727;SDS011;58314;47.722;17.652;2022-08-19T10:23:09;14.68;;;5.70;;
70727;SDS011;58314;47.722;17.652;2022-08-19T10:26:10;10.25;;;5.60;;
70727;SDS011;58314;47.722;17.652;2022-08-19T10:29:13;12.02;;;5.75;;
70727;SDS011;58314;47.722;17.652;2022-08-19T10:32:16;12.23;;;5.80;;
70727;SDS011;58314;47.722;17.652;2022-08-19T10:35:16;12.50;;;6.05;;
70727;SDS011;58314;47.722;17.652;2022-08-19T10:38:17;18.35;;;6.20;;
70727;SDS011;58314;47.722;17.652;2022-08-19T10:41:21;11.27;;;5.32;;
70727;SDS011;58314;47.722;17.652;2022-08-19T10:44:24;13.80;;;5.43;;
70727;SDS011;58314;47.722;17.652;2022-08-19T10:47:25;11.80;;;5.25;;
70727;SDS011;58314;47.722;17.652;2022-08-19T10:50:26;13.30;;;4.93;;
70727;SDS011;58314;47.722;17.652;2022-08-19T10:53:45;10.75;;;4.75;;
70727;SDS011;58314;47.722;17.652;2022-08-19T10:56:46;11.70;;;4.68;;
70727;SDS011;58314;47.722;17.652;2022-08-19T10:59:53;15.38;;;5.63;;
70727;SDS011;58314;47.722;17.652;2022-08-19T11:02:53;15.18;;;5.28;;
70727;SDS011;58314;47.722;17.652;2022-08-19T11:06:01;10.82;;;4.40;;
70727;SDS011;58314;47.722;17.652;2022-08-19T11:09:03;10.88;;;4.78;;
70727;SDS011;58314;47.722;17.652;2022-08-19T11:12:05;16.13;;;5.00;;
70727;SDS011;58314;47.722;17.652;2022-08-19T11:15:06;15.07;;;5.40;;
70727;SDS011;58314;47.722;17.652;2022-08-19T11:18:09;13.10;;;4.72;;
70727;SDS011;58314;47.722;17.652;2022-08-19T11:21:14;11.55;;;4.30;;
70727;SDS011;58314;47.722;17.652;2022-08-19T11:24:21;13.80;;;4.88;;
70727;SDS011;58314;47.722;17.652;2022-08-19T11:27:23;13.07;;;4.80;;
70727;SDS011;58314;47.722;17.652;2022-08-19T11:30:24;11.35;;;4.65;;
70727;SDS011;58314;47.722;17.652;2022-08-19T11:33:25;13.27;;;4.70;;
70727;SDS011;58314;47.722;17.652;2022-08-19T11:36:26;11.93;;;4.70;;
70727;SDS011;58314;47.722;17.652;2022-08-19T11:39:28;7.70;;;3.97;;
70727;SDS011;58314;47.722;17.652;2022-08-19T11:42:30;15.65;;;4.45;;
70727;SDS011;58314;47.722;17.652;2022-08-19T11:46:05;11.07;;;4.13;;
70727;SDS011;58314;47.722;17.652;2022-08-19T11:49:07;15.20;;;4.85;;
70727;SDS011;58314;47.722;17.652;2022-08-19T11:52:11;12.00;;;4.72;;
70727;SDS011;58314;47.722;17.652;2022-08-19T11:55:12;17.85;;;4.40;;
70727;SDS011;58314;47.722;17.652;2022-08-19T11:58:15;12.68;;;4.03;;
70727;SDS011;58314;47.722;17.652;2022-08-19T12:01:18;16.73;;;4.13;;
70727;SDS011;58314;47.722;17.652;2022-08-19T12:04:21;11.68;;;4.05;;
70727;SDS011;58314;47.722;17.652;2022-08-19T12:07:22;8.65;;;3.53;;
70727;SDS011;58314;47.722;17.652;2022-08-19T12:10:24;11.43;;;3.83;;
70727;SDS011;58314;47.722;17.652;2022-08-19T12:13:25;12.60;;;3.70;;
70727;SDS011;58314;47.722;17.652;2022-08-19T12:16:27;12.55;;;3.63;;
70727;SDS011;58314;47.722;17.652;2022-08-19T12:19:29;13.00;;;4.05;;
70727;SDS011;58314;47.722;17.652;2022-08-19T12:22:30;12.70;;;3.53;;
70727;SDS011;58314;47.722;17.652;2022-08-19T12:25:30;12.35;;;3.95;;
70727;SDS011;58314;47.722;17.652;2022-08-19T12:28:32;12.23;;;4.03;;
70727;SDS011;58314;47.722;17.652;2022-08-19T12:31:32;14.70;;;4.75;;
70727;SDS011;58314;47.722;17.652;2022-08-19T12:34:33;15.50;;;5.30;;
70727;SDS011;58314;47.722;17.652;2022-08-19T12:37:34;11.73;;;4.55;;
70727;SDS011;58314;47.722;17.652;2022-08-19T12:40:35;10.00;;;4.43;;
70727;SDS011;58314;47.722;17.652;2022-08-19T12:43:36;17.27;;;4.68;;
70727;SDS011;58314;47.722;17.652;2022-08-19T12:46:37;16.05;;;4.60;;
70727;SDS011;58314;47.722;17.652;2022-08-19T12:49:38;11.65;;;4.55;;
70727;SDS011;58314;47.722;17.652;2022-08-19T12:52:39;12.23;;;4.43;;
70727;SDS011;58314;47.722;17.652;2022-08-19T12:55:42;12.65;;;4.53;;
70727;SDS011;58314;47.722;17.652;2022-08-19T12:58:43;13.82;;;4.50;;
70727;SDS011;58314;47.722;17.652;2022-08-19T13:01:44;10.90;;;4.03;;
70727;SDS011;58314;47.722;17.652;2022-08-19T13:04:45;10.50;;;4.10;;
70727;SDS011;58314;47.722;17.652;2022-08-19T13:07:46;11.77;;;4.22;;
70727;SDS011;58314;47.722;17.652;2022-08-19T13:10:47;9.40;;;3.70;;
70727;SDS011;58314;47.722;17.652;2022-08-19T13:13:48;12.90;;;3.78;;
70727;SDS011;58314;47.722;17.652;2022-08-19T13:16:50;16.45;;;3.70;;
70727;SDS011;58314;47.722;17.652;2022-08-19T13:19:51;14.10;;;3.50;;
70727;SDS011;58314;47.722;17.652;2022-08-19T13:22:52;15.05;;;3.58;;
70727;SDS011;58314;47.722;17.652;2022-08-19T13:25:59;13.98;;;3.65;;
70727;SDS011;58314;47.722;17.652;2022-08-19T13:29:02;10.52;;;3.47;;
70727;SDS011;58314;47.722;17.652;2022-08-19T13:32:21;13.52;;;3.75;;
70727;SDS011;58314;47.722;17.652;2022-08-19T13:38:51;8.27;;;2.85;;
70727;SDS011;58314;47.722;17.652;2022-08-19T13:41:52;10.85;;;3.17;;
70727;SDS011;58314;47.722;17.652;2022-08-19T13:44:53;11.30;;;3.00;;
70727;SDS011;58314;47.722;17.652;2022-08-19T13:47:55;11.98;;;3.10;;
70727;SDS011;58314;47.722;17.652;2022-08-19T13:50:57;12.07;;;3.08;;
70727;SDS011;58314;47.722;17.652;2022-08-19T13:53:58;15.30;;;3.28;;
70727;SDS011;58314;47.722;17.652;2022-08-19T13:56:59;19.77;;;4.55;;
70727;SDS011;58314;47.722;17.652;2022-08-19T13:59:59;27.45;;;5.75;;
70727;SDS011;58314;47.722;17.652;2022-08-19T14:03:01;17.00;;;4.80;;
70727;SDS011;58314;47.722;17.652;2022-08-19T14:06:02;18.90;;;5.07;;
70727;SDS011;58314;47.722;17.652;2022-08-19T14:09:03;24.23;;;5.93;;
70727;SDS011;58314;47.722;17.652;2022-08-19T14:12:05;16.00;;;5.13;;
70727;SDS011;58314;47.722;17.652;2022-08-19T14:15:06;15.95;;;5.20;;
70727;SDS011;58314;47.722;17.652;2022-08-19T14:18:09;11.75;;;4.60;;
70727;SDS011;58314;47.722;17.652;2022-08-19T14:21:17;11.68;;;4.38;;
70727;SDS011;58314;47.722;17.652;2022-08-19T14:24:20;13.43;;;4.28;;
70727;SDS011;58314;47.722;17.652;2022-08-19T14:27:21;12.60;;;4.38;;
70727;SDS011;58314;47.722;17.652;2022-08-19T14:30:29;12.52;;;4.00;;
70727;SDS011;58314;47.722;17.652;2022-08-19T14:33:31;8.40;;;3.70;;
70727;SDS011;58314;47.722;17.652;2022-08-19T14:36:32;13.73;;;4.15;;
70727;SDS011;58314;47.722;17.652;2022-08-19T14:39:37;14.45;;;4.30;;
70727;SDS011;58314;47.722;17.652;2022-08-19T14:42:45;16.05;;;4.72;;
70727;SDS011;58314;47.722;17.652;2022-08-19T14:45:50;15.20;;;4.45;;
70727;SDS011;58314;47.722;17.652;2022-08-19T14:48:57;12.98;;;4.00;;
70727;SDS011;58314;47.722;17.652;2022-08-19T14:51:58;8.20;;;3.00;;
70727;SDS011;58314;47.722;17.652;2022-08-19T14:54:59;12.10;;;3.92;;
70727;SDS011;58314;47.722;17.652;2022-08-19T14:58:06;9.25;;;3.70;;
70727;SDS011;58314;47.722;17.652;2022-08-19T15:01:08;10.80;;;3.90;;
70727;SDS011;58314;47.722;17.652;2022-08-19T15:04:12;8.93;;;3.30;;
70727;SDS011;58314;47.722;17.652;2022-08-19T15:07:13;10.90;;;3.72;;
70727;SDS011;58314;47.722;17.652;2022-08-19T15:10:15;9.65;;;3.50;;
70727;SDS011;58314;47.722;17.652;2022-08-19T15:13:16;13.27;;;3.80;;
70727;SDS011;58314;47.722;17.652;2022-08-19T15:16:17;12.13;;;3.60;;
70727;SDS011;58314;47.722;17.652;2022-08-19T15:19:18;9.85;;;3.70;;
70727;SDS011;58314;47.722;17.652;2022-08-19T15:22:19;10.95;;;3.78;;
70727;SDS011;58314;47.722;17.652;2022-08-19T15:25:20;12.93;;;3.80;;
70727;SDS011;58314;47.722;17.652;2022-08-19T15:28:22;11.82;;;3.58;;
70727;SDS011;58314;47.722;17.652;2022-08-19T15:31:23;13.98;;;4.43;;
70727;SDS011;58314;47.722;17.652;2022-08-19T15:34:24;9.70;;;3.58;;
70727;SDS011;58314;47.722;17.652;2022-08-19T15:37:25;11.85;;;4.20;;
70727;SDS011;58314;47.722;17.652;2022-08-19T15:40:26;12.52;;;4.03;;
70727;SDS011;58314;47.722;17.652;2022-08-19T15:43:27;13.52;;;4.35;;
70727;SDS011;58314;47.722;17.652;2022-08-19T15:46:29;10.30;;;4.20;;
70727;SDS011;58314;47.722;17.652;2022-08-19T15:49:35;12.63;;;4.72;;
70727;SDS011;58314;47.722;17.652;2022-08-19T15:52:52;10.02;;;3.90;;
70727;SDS011;58314;47.722;17.652;2022-08-19T15:55:54;17.60;;;4.63;;
70727;SDS011;58314;47.722;17.652;2022-08-19T15:58:59;16.30;;;4.65;;
70727;SDS011;58314;47.722;17.652;2022-08-19T16:02:23;13.20;;;4.38;;
70727;SDS011;58314;47.722;17.652;2022-08-19T16:05:46;14.95;;;4.35;;
70727;SDS011;58314;47.722;17.652;2022-08-19T16:09:05;15.57;;;4.10;;
70727;SDS011;58314;47.722;17.652;2022-08-19T16:12:09;15.13;;;4.55;;
70727;SDS011;58314;47.722;17.652;2022-08-19T16:15:10;17.08;;;4.22;;
70727;SDS011;58314;47.722;17.652;2022-08-19T16:18:13;14.93;;;4.05;;
70727;SDS011;58314;47.722;17.652;2022-08-19T16:21:14;13.70;;;4.20;;
70727;SDS011;58314;47.722;17.652;2022-08-19T16:24:19;13.82;;;6.70;;
70727;SDS011;58314;47.722;17.652;2022-08-19T16:27:22;11.38;;;4.03;;
70727;SDS011;58314;47.722;17.652;2022-08-19T16:30:24;11.85;;;3.72;;
70727;SDS011;58314;47.722;17.652;2022-08-19T16:33:25;10.77;;;3.45;;
70727;SDS011;58314;47.722;17.652;2022-08-19T16:36:26;15.35;;;3.67;;
70727;SDS011;58314;47.722;17.652;2022-08-19T16:39:27;15.05;;;4.05;;
70727;SDS011;58314;47.722;17.652;2022-08-19T16:42:28;14.90;;;4.13;;
70727;SDS011;58314;47.722;17.652;2022-08-19T16:45:33;11.88;;;3.60;;
70727;SDS011;58314;47.722;17.652;2022-08-19T16:48:34;9.50;;;3.67;;
70727;SDS011;58314;47.722;17.652;2022-08-19T16:51:38;11.35;;;3.45;;
70727;SDS011;58314;47.722;17.652;2022-08-19T16:54:39;11.43;;;3.85;;
70727;SDS011;58314;47.722;17.652;2022-08-19T16:57:40;12.13;;;3.50;;
70727;SDS011;58314;47.722;17.652;2022-08-19T17:00:41;14.48;;;4.03;;
70727;SDS011;58314;47.722;17.652;2022-08-19T17:03:42;11.98;;;3.92;;
70727;SDS011;58314;47.722;17.652;2022-08-19T17:06:43;11.13;;;4.03;;
70727;SDS011;58314;47.722;17.652;2022-08-19T17:09:44;9.82;;;3.88;;
70727;SDS011;58314;47.722;17.652;2022-08-19T17:12:44;7.63;;;3.42;;
70727;SDS011;58314;47.722;17.652;2022-08-19T17:15:45;8.60;;;4.00;;
70727;SDS011;58314;47.722;17.652;2022-08-19T17:18:50;11.13;;;4.38;;
70727;SDS011;58314;47.722;17.652;2022-08-19T17:21:54;9.63;;;3.90;;
70727;SDS011;58314;47.722;17.652;2022-08-19T17:24:56;10.55;;;4.15;;
70727;SDS011;58314;47.722;17.652;2022-08-19T17:27:57;10.68;;;3.72;;
70727;SDS011;58314;47.722;17.652;2022-08-19T17:31:06;11.35;;;4.85;;
70727;SDS011;58314;47.722;17.652;2022-08-19T17:34:06;10.07;;;4.50;;
70727;SDS011;58314;47.722;17.652;2022-08-19T17:37:08;14.18;;;5.20;;
70727;SDS011;58314;47.722;17.652;2022-08-19T17:40:09;12.90;;;4.82;;
70727;SDS011;58314;47.722;17.652;2022-08-19T17:43:10;13.52;;;5.00;;
70727;SDS011;58314;47.722;17.652;2022-08-19T17:46:12;13.73;;;5.40;;
70727;SDS011;58314;47.722;17.652;2022-08-19T17:49:19;12.75;;;5.40;;
70727;SDS011;58314;47.722;17.652;2022-08-19T17:52:20;9.00;;;5.00;;
70727;SDS011;58314;47.722;17.652;2022-08-19T17:55:20;13.68;;;5.68;;
70727;SDS011;58314;47.722;17.652;2022-08-19T17:58:22;14.00;;;5.75;;
70727;SDS011;58314;47.722;17.652;2022-08-19T18:01:23;14.88;;;5.90;;
70727;SDS011;58314;47.722;17.652;2022-08-19T18:04:24;18.05;;;6.20;;
70727;SDS011;58314;47.722;17.652;2022-08-19T18:07:25;14.45;;;6.55;;
70727;SDS011;58314;47.722;17.652;2022-08-19T18:10:27;14.85;;;6.20;;